createdAt,value
2024-04-18T00:01:58.354Z,5.80
2024-04-18T00:04:25.805Z,5.10
2024-04-18T00:07:00.288Z,5.23
2024-04-18T00:09:27.361Z,5.10
2024-04-18T00:11:56.861Z,5.40
2024-04-18T00:14:43.952Z,5.77
2024-04-18T00:17:18.342Z,4.87
2024-04-18T00:19:45.365Z,4.47
2024-04-18T00:22:35.213Z,4.57
2024-04-18T00:25:07.303Z,3.83
2024-04-18T00:27:53.214Z,3.67
2024-04-18T00:30:44.312Z,4.20
2024-04-18T00:33:12.826Z,4.20
2024-04-18T00:35:42.138Z,4.30
2024-04-18T00:38:15.536Z,4.60
2024-04-18T00:40:45.664Z,4.70
2024-04-18T00:43:22.220Z,4.50
2024-04-18T00:45:57.743Z,5.00
2024-04-18T00:48:27.219Z,5.30
2024-04-18T00:51:01.754Z,4.20
2024-04-18T00:53:29.723Z,4.53
2024-04-18T00:56:18.607Z,4.10
2024-04-18T00:58:52.093Z,4.80
2024-04-18T01:01:19.323Z,4.00
2024-04-18T01:03:58.120Z,4.47
2024-04-18T01:06:55.167Z,3.53
2024-04-18T01:09:22.514Z,4.50
2024-04-18T01:12:08.179Z,3.90
2024-04-18T01:14:36.279Z,6.00
2024-04-18T01:17:05.485Z,5.17
2024-04-18T01:19:32.873Z,4.60
2024-04-18T01:22:04.015Z,5.20
2024-04-18T01:24:33.355Z,6.10
2024-04-18T01:27:00.757Z,5.53
2024-04-18T01:29:44.636Z,6.00
2024-04-18T01:32:42.089Z,5.50
2024-04-18T01:35:09.719Z,6.27
2024-04-18T01:37:50.932Z,6.83
2024-04-18T01:40:18.774Z,6.97
2024-04-18T01:43:07.940Z,5.80
2024-04-18T01:45:35.299Z,6.93
2024-04-18T01:48:14.608Z,6.63
2024-04-18T01:51:05.151Z,6.93
2024-04-18T01:53:32.538Z,6.13
2024-04-18T01:55:59.641Z,6.90
2024-04-18T01:58:47.037Z,4.80
2024-04-18T02:01:14.312Z,5.43
2024-04-18T02:03:42.428Z,5.67
2024-04-18T02:06:15.756Z,6.77
2024-04-18T02:08:50.702Z,6.70
2024-04-18T02:11:18.050Z,7.80
2024-04-18T02:14:05.252Z,7.57
2024-04-18T02:16:32.430Z,6.47
2024-04-18T02:19:18.350Z,8.00
2024-04-18T02:22:04.841Z,8.33
2024-04-18T02:24:42.602Z,8.67
2024-04-18T02:27:09.657Z,7.93
2024-04-18T02:29:38.018Z,9.53
2024-04-18T02:32:05.601Z,7.97
2024-04-18T02:34:32.619Z,7.60
2024-04-18T02:37:23.127Z,7.77
2024-04-18T02:39:52.124Z,6.43
2024-04-18T02:42:26.233Z,7.47
2024-04-18T02:45:01.189Z,9.90
2024-04-18T02:47:30.797Z,10.57
2024-04-18T02:50:05.215Z,8.83
2024-04-18T02:52:34.796Z,9.70
2024-04-18T02:55:15.819Z,14.83
2024-04-18T02:57:55.647Z,8.90
2024-04-18T03:00:22.736Z,7.00
2024-04-18T03:03:08.585Z,6.50
2024-04-18T03:06:05.540Z,7.00
2024-04-18T03:08:33.542Z,7.37
2024-04-18T03:11:16.268Z,5.27
2024-04-18T03:14:04.246Z,5.00
2024-04-18T03:16:32.329Z,5.50
2024-04-18T03:19:18.503Z,5.23
2024-04-18T03:21:55.578Z,7.00
2024-04-18T03:24:24.736Z,9.33
2024-04-18T03:26:53.982Z,10.63
2024-04-18T03:29:21.458Z,8.00
2024-04-18T03:31:57.788Z,8.27
2024-04-18T03:34:43.318Z,7.60
2024-04-18T03:37:10.332Z,8.07
2024-04-18T03:39:38.960Z,7.90
2024-04-18T03:42:06.186Z,9.10
2024-04-18T03:44:52.694Z,9.70
2024-04-18T03:47:19.713Z,8.40
2024-04-18T03:50:17.560Z,8.13
2024-04-18T03:52:44.800Z,11.20
2024-04-18T03:55:32.046Z,8.77
2024-04-18T03:57:59.085Z,21.87
2024-04-18T04:00:44.986Z,11.33
2024-04-18T04:03:13.111Z,24.73
2024-04-18T04:05:40.536Z,17.80
2024-04-18T04:08:07.560Z,16.87
2024-04-18T04:10:40.437Z,27.83
2024-04-18T04:13:07.411Z,13.33
2024-04-18T04:15:52.591Z,13.17
2024-04-18T04:18:38.533Z,9.97
2024-04-18T04:21:38.205Z,23.13
2024-04-18T04:24:05.848Z,24.70
2024-04-18T04:26:54.158Z,11.03
2024-04-18T04:29:21.604Z,23.13
2024-04-18T04:31:49.368Z,8.33
2024-04-18T04:34:16.427Z,15.87
2024-04-18T04:36:43.615Z,12.67
2024-04-18T04:39:10.930Z,15.10
2024-04-18T04:41:44.094Z,13.27
2024-04-18T04:44:11.074Z,22.20
2024-04-18T04:46:52.423Z,19.60
2024-04-18T04:49:20.709Z,12.00
2024-04-18T04:52:06.758Z,13.77
2024-04-18T04:54:47.913Z,11.60
2024-04-18T04:57:15.477Z,12.17
2024-04-18T04:59:44.125Z,15.67
2024-04-18T05:02:11.328Z,12.00
2024-04-18T05:04:54.886Z,13.63
2024-04-18T05:07:34.087Z,14.07
2024-04-18T05:10:24.310Z,11.50
2024-04-18T05:12:51.726Z,14.47
2024-04-18T05:15:35.887Z,13.67
2024-04-18T05:18:03.291Z,14.60
2024-04-18T05:20:33.047Z,14.63
2024-04-18T05:23:00.206Z,14.67
2024-04-18T05:25:29.341Z,14.97
2024-04-18T05:28:21.625Z,15.00
2024-04-18T05:31:03.366Z,15.13
2024-04-18T05:33:32.783Z,14.27
2024-04-18T05:36:00.592Z,16.17
2024-04-18T05:38:27.656Z,15.00
2024-04-18T05:40:54.914Z,15.93
2024-04-18T05:43:41.889Z,15.27
2024-04-18T05:46:09.096Z,14.87
2024-04-18T05:48:37.469Z,17.33
2024-04-18T05:51:04.640Z,16.47
2024-04-18T05:53:31.628Z,16.57
2024-04-18T05:55:59.783Z,15.50
2024-04-18T05:58:27.333Z,15.57
2024-04-18T06:00:56.324Z,16.23
2024-04-18T06:03:26.265Z,15.90
2024-04-18T06:05:54.614Z,16.70
2024-04-18T06:08:21.597Z,16.13
2024-04-18T06:10:51.127Z,17.37
2024-04-18T06:13:25.783Z,14.50
2024-04-18T06:15:53.247Z,15.63
2024-04-18T06:18:20.866Z,13.60
2024-04-18T06:20:51.570Z,14.50
2024-04-18T06:23:18.974Z,13.20
2024-04-18T06:26:05.938Z,12.80
2024-04-18T06:28:33.403Z,13.43
2024-04-18T06:31:00.511Z,14.30
2024-04-18T06:33:33.237Z,14.50
2024-04-18T06:36:00.642Z,12.13
2024-04-18T06:38:27.913Z,13.00
2024-04-18T06:40:55.052Z,12.93
2024-04-18T06:43:41.581Z,11.87
2024-04-18T06:46:09.655Z,11.90
2024-04-18T06:48:37.003Z,12.33
2024-04-18T06:51:04.342Z,12.47
2024-04-18T06:53:31.389Z,13.30
2024-04-18T06:55:58.627Z,12.47
2024-04-18T06:58:26.095Z,11.37
2024-04-18T07:00:53.492Z,11.30
2024-04-18T07:03:21.053Z,10.90
2024-04-18T07:05:51.340Z,11.80
2024-04-18T07:08:21.212Z,10.83
2024-04-18T07:10:48.592Z,11.60
2024-04-18T07:13:34.190Z,11.33
2024-04-18T07:16:23.073Z,10.17
2024-04-18T07:18:53.273Z,11.90
2024-04-18T07:21:20.477Z,9.77
2024-04-18T07:23:47.753Z,9.00
2024-04-18T07:26:35.538Z,9.47
2024-04-18T07:29:04.772Z,9.57
2024-04-18T07:31:32.027Z,9.53
2024-04-18T07:34:17.647Z,8.50
2024-04-18T07:36:48.923Z,8.50
2024-04-18T07:39:16.316Z,8.30
2024-04-18T07:41:43.318Z,9.40
2024-04-18T07:44:13.530Z,9.20
2024-04-18T07:46:41.246Z,8.07
2024-04-18T07:49:09.804Z,8.80
2024-04-18T07:51:39.245Z,10.10
2024-04-18T07:54:06.546Z,9.07
2024-04-18T07:56:34.149Z,10.07
2024-04-18T07:59:02.331Z,9.57
2024-04-18T08:01:32.262Z,10.27
2024-04-18T08:04:18.184Z,9.77
2024-04-18T08:06:49.682Z,11.00
2024-04-18T08:09:21.954Z,10.37
2024-04-18T08:14:35.227Z,10.07
2024-04-18T08:17:05.033Z,10.33
2024-04-18T08:19:35.096Z,10.00
2024-04-18T08:22:04.572Z,10.43
2024-04-18T08:24:35.278Z,11.23
2024-04-18T08:27:08.850Z,11.73
2024-04-18T08:29:36.126Z,12.03
2024-04-18T08:32:03.244Z,10.87
2024-04-18T08:34:32.834Z,11.57
2024-04-18T08:37:01.335Z,12.30
2024-04-18T08:39:29.386Z,12.20
2024-04-18T08:42:00.136Z,12.20
2024-04-18T08:44:27.394Z,12.20
2024-04-18T08:46:55.028Z,12.23
2024-04-18T08:49:27.905Z,12.43
2024-04-18T08:51:55.753Z,11.60
2024-04-18T08:54:24.289Z,13.73
2024-04-18T08:56:53.062Z,12.77
2024-04-18T08:59:21.559Z,12.03
2024-04-18T09:01:50.178Z,13.07
2024-04-18T09:04:17.265Z,13.70
2024-04-18T09:06:44.665Z,13.73
2024-04-18T09:09:19.739Z,12.80
2024-04-18T09:11:48.363Z,13.03
2024-04-18T09:14:15.853Z,14.93
2024-04-18T09:16:45.366Z,16.30
2024-04-18T09:19:13.812Z,14.40
2024-04-18T09:21:42.080Z,16.53
2024-04-18T09:24:09.203Z,15.80
2024-04-18T09:26:36.218Z,16.53
2024-04-18T09:29:03.297Z,16.70
2024-04-18T09:31:37.983Z,17.03
2024-04-18T09:34:14.812Z,15.80
2024-04-18T09:36:42.622Z,14.93
2024-04-18T09:39:24.799Z,14.10
2024-04-18T09:42:08.158Z,13.53
2024-04-18T09:44:43.069Z,12.50
2024-04-18T09:47:11.353Z,14.20
2024-04-18T09:49:39.587Z,14.90
2024-04-18T09:52:08.224Z,14.87
2024-04-18T09:54:38.172Z,14.93
2024-04-18T09:57:06.806Z,14.47
2024-04-18T09:59:34.785Z,14.37
2024-04-18T10:02:02.295Z,14.97
2024-04-18T10:04:30.490Z,14.70
2024-04-18T10:07:00.401Z,13.40
2024-04-18T10:09:28.275Z,11.43
2024-04-18T10:11:55.644Z,12.70
2024-04-18T10:14:22.801Z,11.63
2024-04-18T10:16:51.212Z,11.40
2024-04-18T10:19:22.966Z,10.93
2024-04-18T10:22:10.819Z,11.80
2024-04-18T10:24:43.386Z,13.00
2024-04-18T10:27:15.692Z,12.57
2024-04-18T10:29:55.207Z,13.43
2024-04-18T10:32:23.303Z,12.70
2024-04-18T10:34:54.299Z,12.70
2024-04-18T10:37:22.560Z,12.50
2024-04-18T10:39:50.486Z,11.70
2024-04-18T10:42:21.863Z,11.83
2024-04-18T10:44:49.800Z,12.30
2024-04-18T10:47:21.749Z,13.30
2024-04-18T10:49:50.317Z,12.20
2024-04-18T10:52:21.861Z,12.30
2024-04-18T10:54:48.898Z,12.07
2024-04-18T10:57:16.213Z,12.63
2024-04-18T10:59:48.750Z,11.70
2024-04-18T11:02:16.299Z,11.60
2024-04-18T11:04:43.500Z,10.90
2024-04-18T11:07:12.292Z,10.63
2024-04-18T11:09:41.195Z,10.40
2024-04-18T11:12:09.402Z,10.57
2024-04-18T11:14:36.911Z,10.10
2024-04-18T11:17:08.515Z,11.07
2024-04-18T11:19:36.905Z,11.93
2024-04-18T11:22:04.699Z,12.03
2024-04-18T11:24:32.372Z,13.57
2024-04-18T11:27:04.220Z,15.30
2024-04-18T11:29:33.156Z,16.10
2024-04-18T11:32:11.473Z,17.53
2024-04-18T11:34:39.886Z,17.03
2024-04-18T11:37:09.258Z,18.20
2024-04-18T11:39:36.691Z,15.87
2024-04-18T11:42:06.896Z,16.40
2024-04-18T11:44:34.380Z,15.13
2024-04-18T11:47:02.015Z,14.90
2024-04-18T11:49:30.650Z,14.50
2024-04-18T11:51:58.162Z,13.10
2024-04-18T11:54:25.942Z,16.77
2024-04-18T11:56:55.227Z,16.27
2024-04-18T11:59:33.079Z,16.60
2024-04-18T12:02:00.438Z,15.60
2024-04-18T12:04:27.741Z,16.10
2024-04-18T12:06:55.502Z,16.07
2024-04-18T12:09:29.849Z,16.60
2024-04-18T12:12:00.374Z,16.83
2024-04-18T12:14:48.959Z,16.57
2024-04-18T12:17:31.676Z,16.70
2024-04-18T12:20:18.151Z,16.93
2024-04-18T12:22:46.949Z,15.70
2024-04-18T12:25:16.645Z,16.37
2024-04-18T12:27:44.525Z,15.30
2024-04-18T12:30:31.587Z,16.97
2024-04-18T12:33:17.313Z,14.50
2024-04-18T12:35:44.996Z,14.93
2024-04-18T12:38:13.956Z,14.03
2024-04-18T12:40:45.977Z,16.33
2024-04-18T12:43:19.471Z,14.80
2024-04-18T12:46:06.771Z,14.13
2024-04-18T12:48:51.902Z,12.93
2024-04-18T12:51:19.277Z,13.63
2024-04-18T12:53:46.655Z,13.03
2024-04-18T12:56:14.016Z,18.33
2024-04-18T12:58:44.061Z,13.80
2024-04-18T13:01:13.080Z,14.10
2024-04-18T13:03:43.638Z,14.60
2024-04-18T13:06:29.843Z,13.10
2024-04-18T13:08:58.436Z,15.37
2024-04-18T13:11:46.307Z,15.47
2024-04-18T13:14:14.669Z,15.00
2024-04-18T13:16:41.879Z,14.80
2024-04-18T13:19:13.144Z,14.17
2024-04-18T13:21:40.626Z,14.50
2024-04-18T13:24:12.465Z,14.50
2024-04-18T13:26:52.884Z,14.80
2024-04-18T13:29:20.992Z,14.93
2024-04-18T13:31:49.238Z,13.83
2024-04-18T13:34:19.963Z,14.00
2024-04-18T13:36:48.547Z,15.07
2024-04-18T13:39:15.921Z,14.10
2024-04-18T13:42:03.198Z,13.43
2024-04-18T13:44:51.586Z,15.30
2024-04-18T13:47:44.963Z,14.60
2024-04-18T13:50:12.141Z,13.70
2024-04-18T13:52:42.299Z,14.63
2024-04-18T13:55:09.784Z,15.80
2024-04-18T13:57:36.995Z,13.53
2024-04-18T14:00:19.680Z,15.90
2024-04-18T14:03:09.567Z,16.17
2024-04-18T14:05:58.816Z,17.60
2024-04-18T14:08:40.254Z,18.70
2024-04-18T14:11:27.753Z,18.20
2024-04-18T14:14:11.491Z,18.80
2024-04-18T14:17:17.567Z,17.10
2024-04-18T14:20:02.764Z,20.07
2024-04-18T14:22:29.837Z,20.30
2024-04-18T14:24:56.890Z,17.30
2024-04-18T14:27:33.507Z,18.50
2024-04-18T14:30:02.272Z,18.33
2024-04-18T14:32:35.478Z,17.47
2024-04-18T14:35:02.680Z,16.20
2024-04-18T14:37:33.004Z,14.93
2024-04-18T14:40:01.562Z,14.97
2024-04-18T14:42:28.743Z,14.17
2024-04-18T14:44:57.219Z,13.67
2024-04-18T14:47:25.164Z,12.63
2024-04-18T14:50:04.419Z,13.00
2024-04-18T14:52:37.839Z,13.47
2024-04-18T14:55:29.183Z,13.03
2024-04-18T14:58:03.071Z,12.80
2024-04-18T15:00:50.651Z,12.90
2024-04-18T15:03:17.980Z,12.37
2024-04-18T15:05:55.427Z,12.70
2024-04-18T15:08:48.611Z,12.73
2024-04-18T15:11:28.123Z,12.00
2024-04-18T15:14:05.983Z,12.77
2024-04-18T15:16:36.031Z,12.90
2024-04-18T15:19:07.482Z,13.77
2024-04-18T15:21:54.405Z,13.80
2024-04-18T15:24:23.572Z,15.17
2024-04-18T15:27:02.519Z,14.90
2024-04-18T15:29:30.527Z,15.80
2024-04-18T15:32:16.958Z,16.30
2024-04-18T15:34:48.042Z,17.10
2024-04-18T15:37:37.236Z,17.80
2024-04-18T15:40:11.518Z,17.80
2024-04-18T15:42:59.554Z,17.40
2024-04-18T15:45:29.700Z,18.20
2024-04-18T15:48:16.884Z,17.27
2024-04-18T15:50:54.253Z,17.10
2024-04-18T15:53:31.692Z,17.27
2024-04-18T15:56:08.714Z,17.37
2024-04-18T15:58:54.779Z,16.37
2024-04-18T16:01:25.546Z,16.20
2024-04-18T16:04:11.399Z,17.07
2024-04-18T16:06:57.398Z,16.80
2024-04-18T16:09:42.977Z,17.23
2024-04-18T16:12:22.426Z,17.10
2024-04-18T16:15:06.711Z,16.43
2024-04-18T16:17:34.700Z,16.20
2024-04-18T16:20:12.846Z,17.57
2024-04-18T16:22:40.201Z,17.20
2024-04-18T16:25:26.190Z,19.03
2024-04-18T16:27:53.268Z,17.13
2024-04-18T16:30:25.561Z,17.77
2024-04-18T16:32:52.734Z,17.00
2024-04-18T16:35:20.112Z,16.37
2024-04-18T16:38:07.062Z,15.93
2024-04-18T16:40:53.619Z,17.80
2024-04-18T16:43:37.137Z,17.90
2024-04-18T16:46:05.855Z,16.90
2024-04-18T16:48:33.118Z,16.90
2024-04-18T16:51:01.656Z,16.63
2024-04-18T16:53:53.856Z,16.60
2024-04-18T16:56:23.119Z,17.10
2024-04-18T16:58:54.259Z,16.70
2024-04-18T17:01:22.410Z,16.53
2024-04-18T17:03:50.791Z,18.23
2024-04-18T17:06:38.791Z,17.90
2024-04-18T17:09:13.318Z,18.33
2024-04-18T17:11:40.783Z,17.37
2024-04-18T17:14:38.730Z,16.20
2024-04-18T17:17:05.896Z,16.80
2024-04-18T17:19:54.164Z,16.23
2024-04-18T17:22:21.363Z,15.90
2024-04-18T17:24:50.353Z,15.30
2024-04-18T17:27:18.787Z,16.23
2024-04-18T17:29:47.304Z,17.23
2024-04-18T17:32:14.340Z,17.07
2024-04-18T17:34:41.895Z,16.23
2024-04-18T17:37:10.108Z,15.97
2024-04-18T17:39:53.492Z,15.80
2024-04-18T17:42:21.590Z,15.50
2024-04-18T17:44:54.773Z,16.70
2024-04-18T17:47:29.604Z,16.90
2024-04-18T17:49:59.124Z,16.17
2024-04-18T17:52:26.122Z,16.43
2024-04-18T17:54:56.140Z,16.07
2024-04-18T17:57:26.236Z,16.20
2024-04-18T18:00:14.401Z,16.00
2024-04-18T18:02:41.846Z,16.00
2024-04-18T18:05:09.998Z,15.90
2024-04-18T18:07:39.056Z,16.57
2024-04-18T18:10:09.009Z,16.00
2024-04-18T18:12:36.239Z,16.20
2024-04-18T18:15:04.254Z,16.63
2024-04-18T18:17:35.752Z,15.10
2024-04-18T18:20:04.250Z,14.70
2024-04-18T18:22:47.646Z,15.17
2024-04-18T18:25:17.095Z,14.40
2024-04-18T18:27:45.031Z,13.43
2024-04-18T18:30:31.400Z,14.00
2024-04-18T18:33:19.243Z,13.43
2024-04-18T18:35:47.350Z,13.43
2024-04-18T18:38:15.717Z,13.00
2024-04-18T18:40:42.729Z,13.07
2024-04-18T18:43:23.302Z,12.90
2024-04-18T18:45:52.335Z,13.43
2024-04-18T18:48:27.772Z,13.40
2024-04-18T18:51:06.148Z,31.80
2024-04-18T18:53:34.598Z,13.93
2024-04-18T18:56:01.958Z,14.87
2024-04-18T18:58:50.670Z,14.70
2024-04-18T19:01:17.776Z,13.53
2024-04-18T19:03:47.654Z,12.73
2024-04-18T19:06:24.347Z,12.87
2024-04-18T19:08:51.611Z,13.40
2024-04-18T19:11:36.609Z,12.50
2024-04-18T19:14:04.134Z,12.40
2024-04-18T19:16:31.133Z,13.43
2024-04-18T19:18:59.653Z,12.90
2024-04-18T19:21:26.706Z,13.17
2024-04-18T19:23:53.743Z,12.00
2024-04-18T19:26:23.528Z,12.60
2024-04-18T19:28:53.621Z,12.10
2024-04-18T19:31:24.520Z,12.10
2024-04-18T19:33:55.140Z,11.93
2024-04-18T19:36:23.677Z,12.10
2024-04-18T19:38:50.792Z,12.07
2024-04-18T19:41:26.876Z,12.47
2024-04-18T19:43:54.768Z,11.93
2024-04-18T19:46:23.364Z,11.80
2024-04-18T19:49:10.449Z,11.37
2024-04-18T19:52:02.564Z,11.30
2024-04-18T19:54:31.846Z,12.00
2024-04-18T19:57:00.439Z,13.13
2024-04-18T19:59:28.091Z,11.80
2024-04-18T20:01:55.234Z,11.60
2024-04-18T20:04:22.494Z,11.77
2024-04-18T20:06:49.998Z,11.33
2024-04-18T20:09:17.534Z,11.83
2024-04-18T20:11:44.983Z,11.50
2024-04-18T20:14:20.180Z,12.37
2024-04-18T20:16:47.275Z,13.20
2024-04-18T20:19:16.296Z,11.50
2024-04-18T20:21:44.773Z,11.10
2024-04-18T20:24:13.764Z,11.53
2024-04-18T20:26:59.527Z,11.50
2024-04-18T20:29:45.357Z,11.60
2024-04-18T20:32:30.951Z,11.50
2024-04-18T20:34:59.612Z,12.07
2024-04-18T20:37:28.364Z,11.93
2024-04-18T20:39:58.660Z,11.37
2024-04-18T20:42:27.326Z,11.43
2024-04-18T20:45:03.365Z,11.17
2024-04-18T20:47:32.638Z,11.27
2024-04-18T20:50:00.270Z,11.00
2024-04-18T20:52:27.558Z,11.43
2024-04-18T20:54:54.849Z,11.90
2024-04-18T20:57:25.194Z,11.67
2024-04-18T20:59:54.154Z,11.87
2024-04-18T21:02:21.899Z,11.70
2024-04-18T21:04:49.183Z,11.93
2024-04-18T21:07:16.431Z,11.67
2024-04-18T21:09:43.671Z,12.30
2024-04-18T21:12:10.960Z,11.77
2024-04-18T21:14:39.806Z,11.83
2024-04-18T21:17:08.336Z,12.00
2024-04-18T21:19:35.915Z,11.10
2024-04-18T21:22:03.936Z,11.20
2024-04-18T21:24:31.171Z,11.03
2024-04-18T21:26:58.473Z,10.97
2024-04-18T21:29:25.663Z,11.80
2024-04-18T21:31:52.888Z,11.03
2024-04-18T21:34:20.513Z,11.77
2024-04-18T21:36:47.784Z,11.70
2024-04-18T21:39:15.435Z,11.50
2024-04-18T21:41:43.133Z,10.97
2024-04-18T21:44:11.082Z,11.30
2024-04-18T21:46:38.651Z,11.50
2024-04-18T21:49:05.848Z,11.10
2024-04-18T21:51:33.188Z,10.93
2024-04-18T21:54:01.762Z,11.70
2024-04-18T21:56:30.041Z,11.20
2024-04-18T21:58:58.906Z,10.40
2024-04-18T22:01:38.569Z,11.30
2024-04-18T22:04:05.863Z,10.10
2024-04-18T22:06:34.745Z,9.63
2024-04-18T22:09:02.196Z,10.87
2024-04-18T22:11:29.453Z,9.77
2024-04-18T22:13:58.194Z,9.47
2024-04-18T22:16:25.372Z,10.20
2024-04-18T22:18:53.228Z,9.57
2024-04-18T22:21:40.704Z,10.07
2024-04-18T22:24:08.966Z,9.30
2024-04-18T22:26:37.784Z,9.07
2024-04-18T22:29:05.627Z,9.57
2024-04-18T22:31:32.834Z,8.60
2024-04-18T22:34:00.602Z,9.43
2024-04-18T22:36:28.219Z,9.30
2024-04-18T22:38:58.265Z,9.07
2024-04-18T22:41:27.543Z,9.50
2024-04-18T22:43:55.224Z,9.67
2024-04-18T22:46:22.420Z,10.60
2024-04-18T22:48:50.269Z,9.60
2024-04-18T22:51:17.494Z,10.27
2024-04-18T22:53:45.026Z,9.80
2024-04-18T22:56:13.254Z,9.47
2024-04-18T22:58:40.409Z,8.97
2024-04-18T23:01:07.808Z,9.73
2024-04-18T23:03:36.696Z,9.83
2024-04-18T23:06:15.021Z,9.17
2024-04-18T23:08:43.382Z,9.40
2024-04-18T23:11:10.809Z,9.20
2024-04-18T23:13:38.339Z,9.40
2024-04-18T23:16:06.262Z,10.10
2024-04-18T23:18:33.641Z,9.90
2024-04-18T23:21:01.042Z,11.27
2024-04-18T23:23:34.868Z,10.43
2024-04-18T23:26:03.514Z,10.93
2024-04-18T23:28:30.707Z,10.60
2024-04-18T23:30:58.970Z,10.90
2024-04-18T23:33:26.220Z,9.67
2024-04-18T23:35:54.224Z,10.70
2024-04-18T23:38:22.394Z,10.03
2024-04-18T23:40:49.996Z,10.30
2024-04-18T23:43:17.250Z,10.47
2024-04-18T23:45:44.363Z,9.83
2024-04-18T23:48:13.311Z,9.47
2024-04-18T23:50:40.831Z,9.90
2024-04-18T23:53:08.135Z,9.90
2024-04-18T23:55:35.363Z,10.83
2024-04-18T23:58:02.660Z,10.43
